This is the latest recevied weather packets stored in our database for station/object SM6VFJ-1. If no packets are shown the sender has not sent any weather packets the latest 10 day(s).
| Time | Temp. | Humidity | Pressure | Rain* | Wind** | Luminosity | Snow |
|---|---|---|---|---|---|---|---|
| 1777965325 | 6.11° C | 62% | 1009 hPa | 0 mm | - | 480 W/m² | - |
| 1777962613 | 6.11° C | 65% | 1008.9 hPa | 0 mm | - | 374 W/m² | - |
| 1777959074 | 5.56° C | 68% | 1008.3 hPa | 0 mm | - | 186 W/m² | - |
| 1777956351 | 5° C | 77% | 1008 hPa | 0 mm | - | 98 W/m² | - |
| 1777954543 | 5° C | 81% | 1007.8 hPa | 0 mm | - | 60 W/m² | - |
| 1777952733 | 5.56° C | 87% | 1007.5 hPa | 0 mm | - | 18 W/m² | - |
| 1777950026 | 6.11° C | 87% | 1007.1 hPa | 0 mm | - | 5 W/m² | - |
| 1777947319 | 6.67° C | 87% | 1006.9 hPa | 0 mm | - | 0 W/m² | - |
| 1777945515 | 6.67° C | 87% | 1006.7 hPa | 0 mm | - | 0 W/m² | - |
| 1777942816 | 6.67° C | 88% | 1006.7 hPa | 0 mm | - | 0 W/m² | - |
| 1777938360 | 6.67° C | 86% | 1006.6 hPa | 0 mm | - | 0 W/m² | - |
| 1777936559 | 6.67° C | 85% | 1006.6 hPa | 0 mm | - | 0 W/m² | - |
| 1777934754 | 7.22° C | 84% | 1006.6 hPa | 0 mm | - | 0 W/m² | - |
| 1777932048 | 7.78° C | 81% | 1006.9 hPa | 0 mm | - | 0 W/m² | - |
| 1777920336 | 11.67° C | 48% | 1006.3 hPa | 0 mm | - | 9 W/m² | - |
| 1777916732 | 13.33° C | 39% | 1006.5 hPa | 0 mm | - | 60 W/m² | - |
| 1777915829 | 13.89° C | 41% | 1006.4 hPa | 0 mm | - | 90 W/m² | - |
| 1777912232 | 14.44° C | 40% | 1006.1 hPa | 0 mm | - | 241 W/m² | - |
| 1777902321 | 15.56° C | 45% | 1005.1 hPa | 0 mm | - | 591 W/m² | - |
| 1777896911 | 13.89° C | 66% | 1005 hPa | 0 mm | - | 756 W/m² | - |
| 1777887060 | 13.33° C | 57% | 1004.7 hPa | 0 mm | - | 694 W/m² | - |
| 1777881640 | 11.67° C | 90% | 1004.6 hPa | 0 mm | - | 715 W/m² | - |
| 1777876228 | 10° C | 94% | 1004.5 hPa | 0 mm | - | 158 W/m² | - |
| 1777863650 | 8.89° C | 94% | 1005.6 hPa | 0 mm | - | 0 W/m² | - |
| 1777862748 | 8.89° C | 94% | 1005.7 hPa | 0 mm | - | 0 W/m² | - |
* Rain latest hour (hover to see other rain measurements)
** Current wind speed in m/s (hover to see current wind gust speed)